sensor_id;sensor_type;location;lat;lon;timestamp;temperature;humidity
13585;DHT22;6863;48.402;9.994;2023-11-19T00:02:20;6.20;99.90
13585;DHT22;6863;48.402;9.994;2023-11-19T00:04:47;6.20;99.90
13585;DHT22;6863;48.402;9.994;2023-11-19T00:07:12;6.20;99.90
13585;DHT22;6863;48.402;9.994;2023-11-19T00:09:41;6.20;99.90
13585;DHT22;6863;48.402;9.994;2023-11-19T00:12:08;6.20;99.90
13585;DHT22;6863;48.402;9.994;2023-11-19T00:14:34;6.20;99.90
13585;DHT22;6863;48.402;9.994;2023-11-19T00:17:00;6.20;99.90
13585;DHT22;6863;48.402;9.994;2023-11-19T00:19:25;6.20;99.90
13585;DHT22;6863;48.402;9.994;2023-11-19T00:21:51;6.20;99.90
13585;DHT22;6863;48.402;9.994;2023-11-19T00:24:17;6.20;99.90
13585;DHT22;6863;48.402;9.994;2023-11-19T00:26:43;6.20;99.90
13585;DHT22;6863;48.402;9.994;2023-11-19T00:29:09;6.20;99.90
13585;DHT22;6863;48.402;9.994;2023-11-19T00:31:35;6.20;99.90
13585;DHT22;6863;48.402;9.994;2023-11-19T00:34:00;6.30;99.90
13585;DHT22;6863;48.402;9.994;2023-11-19T00:36:27;6.20;99.90
13585;DHT22;6863;48.402;9.994;2023-11-19T00:38:53;6.20;99.90
13585;DHT22;6863;48.402;9.994;2023-11-19T00:41:19;6.30;99.90
13585;DHT22;6863;48.402;9.994;2023-11-19T00:43:44;6.30;99.90
13585;DHT22;6863;48.402;9.994;2023-11-19T00:46:10;6.20;99.90
13585;DHT22;6863;48.402;9.994;2023-11-19T00:48:41;6.30;99.90
13585;DHT22;6863;48.402;9.994;2023-11-19T00:51:07;6.20;99.90
13585;DHT22;6863;48.402;9.994;2023-11-19T00:53:33;6.30;99.90
13585;DHT22;6863;48.402;9.994;2023-11-19T00:56:02;6.30;99.90
13585;DHT22;6863;48.402;9.994;2023-11-19T00:58:27;6.40;99.90
13585;DHT22;6863;48.402;9.994;2023-11-19T01:00:53;6.40;99.90
13585;DHT22;6863;48.402;9.994;2023-11-19T01:03:18;6.40;99.90
13585;DHT22;6863;48.402;9.994;2023-11-19T01:05:44;6.40;99.90
13585;DHT22;6863;48.402;9.994;2023-11-19T01:08:12;6.40;99.90
13585;DHT22;6863;48.402;9.994;2023-11-19T01:10:37;6.40;99.90
13585;DHT22;6863;48.402;9.994;2023-11-19T01:13:03;6.50;99.90
13585;DHT22;6863;48.402;9.994;2023-11-19T01:15:31;6.50;99.90
13585;DHT22;6863;48.402;9.994;2023-11-19T01:17:57;6.50;99.90
13585;DHT22;6863;48.402;9.994;2023-11-19T01:20:22;6.60;99.90
13585;DHT22;6863;48.402;9.994;2023-11-19T01:22:49;6.60;99.90
13585;DHT22;6863;48.402;9.994;2023-11-19T01:25:15;6.60;99.90
13585;DHT22;6863;48.402;9.994;2023-11-19T01:27:40;6.60;99.90
13585;DHT22;6863;48.402;9.994;2023-11-19T01:30:06;6.60;99.90
13585;DHT22;6863;48.402;9.994;2023-11-19T01:32:35;6.60;99.90
13585;DHT22;6863;48.402;9.994;2023-11-19T01:35:02;6.60;99.90
13585;DHT22;6863;48.402;9.994;2023-11-19T01:37:28;6.70;99.90
13585;DHT22;6863;48.402;9.994;2023-11-19T01:39:53;6.70;99.90
13585;DHT22;6863;48.402;9.994;2023-11-19T01:42:19;6.70;99.90
13585;DHT22;6863;48.402;9.994;2023-11-19T01:44:58;6.70;99.90
13585;DHT22;6863;48.402;9.994;2023-11-19T01:47:25;6.70;99.90
13585;DHT22;6863;48.402;9.994;2023-11-19T01:49:51;6.80;99.90
13585;DHT22;6863;48.402;9.994;2023-11-19T01:52:17;6.80;99.90
13585;DHT22;6863;48.402;9.994;2023-11-19T01:54:43;6.80;99.90
13585;DHT22;6863;48.402;9.994;2023-11-19T01:57:09;6.90;99.90
13585;DHT22;6863;48.402;9.994;2023-11-19T01:59:34;6.90;99.90
13585;DHT22;6863;48.402;9.994;2023-11-19T02:02:00;6.90;99.90
13585;DHT22;6863;48.402;9.994;2023-11-19T02:04:26;6.90;99.90
13585;DHT22;6863;48.402;9.994;2023-11-19T02:06:54;6.80;99.90
13585;DHT22;6863;48.402;9.994;2023-11-19T02:09:21;6.90;99.90
13585;DHT22;6863;48.402;9.994;2023-11-19T02:11:47;6.90;99.90
13585;DHT22;6863;48.402;9.994;2023-11-19T02:14:17;7.00;99.90
13585;DHT22;6863;48.402;9.994;2023-11-19T02:16:43;7.00;99.90
13585;DHT22;6863;48.402;9.994;2023-11-19T02:19:09;7.10;99.90
13585;DHT22;6863;48.402;9.994;2023-11-19T02:21:36;7.10;99.90
13585;DHT22;6863;48.402;9.994;2023-11-19T02:24:06;7.10;99.90
13585;DHT22;6863;48.402;9.994;2023-11-19T02:26:55;7.10;99.90
13585;DHT22;6863;48.402;9.994;2023-11-19T02:29:24;7.00;99.90
13585;DHT22;6863;48.402;9.994;2023-11-19T02:31:50;7.00;99.90
13585;DHT22;6863;48.402;9.994;2023-11-19T02:34:15;7.00;99.90
13585;DHT22;6863;48.402;9.994;2023-11-19T02:36:41;7.00;99.90
13585;DHT22;6863;48.402;9.994;2023-11-19T02:39:08;7.00;99.90
13585;DHT22;6863;48.402;9.994;2023-11-19T02:41:36;7.00;99.90
13585;DHT22;6863;48.402;9.994;2023-11-19T02:44:02;7.10;99.90
13585;DHT22;6863;48.402;9.994;2023-11-19T02:46:28;7.10;99.90
13585;DHT22;6863;48.402;9.994;2023-11-19T02:48:54;7.10;99.90
13585;DHT22;6863;48.402;9.994;2023-11-19T02:51:19;7.20;99.90
13585;DHT22;6863;48.402;9.994;2023-11-19T02:53:45;7.20;99.90
13585;DHT22;6863;48.402;9.994;2023-11-19T02:56:13;7.20;99.90
13585;DHT22;6863;48.402;9.994;2023-11-19T02:59:01;7.20;99.90
13585;DHT22;6863;48.402;9.994;2023-11-19T03:01:37;7.20;99.90
13585;DHT22;6863;48.402;9.994;2023-11-19T03:04:03;7.30;99.90
13585;DHT22;6863;48.402;9.994;2023-11-19T03:06:29;7.30;99.90
13585;DHT22;6863;48.402;9.994;2023-11-19T03:08:55;7.30;99.90
13585;DHT22;6863;48.402;9.994;2023-11-19T03:11:21;7.30;99.90
13585;DHT22;6863;48.402;9.994;2023-11-19T03:13:47;7.30;99.90
13585;DHT22;6863;48.402;9.994;2023-11-19T03:16:12;7.30;99.90
13585;DHT22;6863;48.402;9.994;2023-11-19T03:18:39;7.40;99.90
13585;DHT22;6863;48.402;9.994;2023-11-19T03:21:08;7.40;99.90
13585;DHT22;6863;48.402;9.994;2023-11-19T03:23:34;7.50;99.90
13585;DHT22;6863;48.402;9.994;2023-11-19T03:26:00;7.60;99.90
13585;DHT22;6863;48.402;9.994;2023-11-19T03:28:29;7.50;99.90
13585;DHT22;6863;48.402;9.994;2023-11-19T03:30:54;7.50;99.90
13585;DHT22;6863;48.402;9.994;2023-11-19T03:33:20;7.50;99.90
13585;DHT22;6863;48.402;9.994;2023-11-19T03:35:46;7.60;99.90
13585;DHT22;6863;48.402;9.994;2023-11-19T03:38:12;7.60;99.90
13585;DHT22;6863;48.402;9.994;2023-11-19T03:40:38;7.70;99.90
13585;DHT22;6863;48.402;9.994;2023-11-19T03:43:04;7.70;99.90
13585;DHT22;6863;48.402;9.994;2023-11-19T03:45:30;7.70;99.90
13585;DHT22;6863;48.402;9.994;2023-11-19T03:47:56;7.70;99.90
13585;DHT22;6863;48.402;9.994;2023-11-19T03:50:21;7.70;99.90
13585;DHT22;6863;48.402;9.994;2023-11-19T03:52:47;7.70;99.90
13585;DHT22;6863;48.402;9.994;2023-11-19T03:55:13;7.70;99.90
13585;DHT22;6863;48.402;9.994;2023-11-19T03:57:39;7.80;99.90
13585;DHT22;6863;48.402;9.994;2023-11-19T04:00:05;7.70;99.90
13585;DHT22;6863;48.402;9.994;2023-11-19T04:02:36;7.70;99.90
13585;DHT22;6863;48.402;9.994;2023-11-19T04:05:02;7.70;99.90
13585;DHT22;6863;48.402;9.994;2023-11-19T04:07:29;7.80;99.90
13585;DHT22;6863;48.402;9.994;2023-11-19T04:09:54;7.80;99.90
13585;DHT22;6863;48.402;9.994;2023-11-19T04:12:20;7.80;99.90
13585;DHT22;6863;48.402;9.994;2023-11-19T04:14:47;7.70;99.90
13585;DHT22;6863;48.402;9.994;2023-11-19T04:17:12;7.80;99.90
13585;DHT22;6863;48.402;9.994;2023-11-19T04:19:38;7.80;99.90
13585;DHT22;6863;48.402;9.994;2023-11-19T04:22:07;7.80;99.90
13585;DHT22;6863;48.402;9.994;2023-11-19T04:24:33;7.80;99.90
13585;DHT22;6863;48.402;9.994;2023-11-19T04:26:58;7.80;99.90
13585;DHT22;6863;48.402;9.994;2023-11-19T04:29:24;7.70;99.90
13585;DHT22;6863;48.402;9.994;2023-11-19T04:31:50;7.70;99.90
13585;DHT22;6863;48.402;9.994;2023-11-19T04:34:15;7.70;99.90
13585;DHT22;6863;48.402;9.994;2023-11-19T04:36:41;7.70;99.90
13585;DHT22;6863;48.402;9.994;2023-11-19T04:39:06;7.70;99.90
13585;DHT22;6863;48.402;9.994;2023-11-19T04:41:45;7.60;99.90
13585;DHT22;6863;48.402;9.994;2023-11-19T04:44:12;7.70;99.90
13585;DHT22;6863;48.402;9.994;2023-11-19T04:46:37;7.70;99.90
13585;DHT22;6863;48.402;9.994;2023-11-19T04:49:03;7.70;99.90
13585;DHT22;6863;48.402;9.994;2023-11-19T04:51:28;7.70;99.90
13585;DHT22;6863;48.402;9.994;2023-11-19T04:53:54;7.70;99.90
13585;DHT22;6863;48.402;9.994;2023-11-19T04:56:20;7.80;99.90
13585;DHT22;6863;48.402;9.994;2023-11-19T04:58:47;7.80;99.90
13585;DHT22;6863;48.402;9.994;2023-11-19T05:01:16;7.80;99.90
13585;DHT22;6863;48.402;9.994;2023-11-19T05:03:42;7.80;99.90
13585;DHT22;6863;48.402;9.994;2023-11-19T05:08:33;7.70;99.90
13585;DHT22;6863;48.402;9.994;2023-11-19T05:10:58;7.70;99.90
13585;DHT22;6863;48.402;9.994;2023-11-19T05:13:24;7.80;99.90
13585;DHT22;6863;48.402;9.994;2023-11-19T05:15:50;7.80;99.90
13585;DHT22;6863;48.402;9.994;2023-11-19T05:18:15;7.80;99.90
13585;DHT22;6863;48.402;9.994;2023-11-19T05:20:41;7.80;99.90
13585;DHT22;6863;48.402;9.994;2023-11-19T05:23:07;7.80;99.90
13585;DHT22;6863;48.402;9.994;2023-11-19T05:25:32;7.90;99.90
13585;DHT22;6863;48.402;9.994;2023-11-19T05:27:58;7.90;99.90
13585;DHT22;6863;48.402;9.994;2023-11-19T05:30:23;7.90;99.90
13585;DHT22;6863;48.402;9.994;2023-11-19T05:32:49;7.80;99.90
13585;DHT22;6863;48.402;9.994;2023-11-19T05:35:14;7.80;99.90
13585;DHT22;6863;48.402;9.994;2023-11-19T05:37:40;7.90;99.90
13585;DHT22;6863;48.402;9.994;2023-11-19T05:40:06;7.90;99.90
13585;DHT22;6863;48.402;9.994;2023-11-19T05:42:40;7.90;99.90
13585;DHT22;6863;48.402;9.994;2023-11-19T05:45:05;8.00;99.90
13585;DHT22;6863;48.402;9.994;2023-11-19T05:47:33;8.00;99.90
13585;DHT22;6863;48.402;9.994;2023-11-19T05:49:58;8.00;99.90
13585;DHT22;6863;48.402;9.994;2023-11-19T05:52:24;8.00;99.90
13585;DHT22;6863;48.402;9.994;2023-11-19T05:54:50;8.00;99.90
13585;DHT22;6863;48.402;9.994;2023-11-19T05:57:17;8.00;99.90
13585;DHT22;6863;48.402;9.994;2023-11-19T05:59:49;8.00;99.90
13585;DHT22;6863;48.402;9.994;2023-11-19T06:02:15;8.00;99.90
13585;DHT22;6863;48.402;9.994;2023-11-19T06:04:40;8.10;99.90
13585;DHT22;6863;48.402;9.994;2023-11-19T06:07:09;8.20;99.90
13585;DHT22;6863;48.402;9.994;2023-11-19T06:09:35;8.10;99.90
13585;DHT22;6863;48.402;9.994;2023-11-19T06:12:01;8.20;99.90
13585;DHT22;6863;48.402;9.994;2023-11-19T06:14:27;8.20;99.90
13585;DHT22;6863;48.402;9.994;2023-11-19T06:16:53;8.10;99.90
13585;DHT22;6863;48.402;9.994;2023-11-19T06:19:18;8.20;99.90
13585;DHT22;6863;48.402;9.994;2023-11-19T06:21:44;8.20;99.90
13585;DHT22;6863;48.402;9.994;2023-11-19T06:24:09;8.30;99.90
13585;DHT22;6863;48.402;9.994;2023-11-19T06:26:35;8.20;99.90
13585;DHT22;6863;48.402;9.994;2023-11-19T06:29:01;8.30;99.90
13585;DHT22;6863;48.402;9.994;2023-11-19T06:31:26;8.30;99.90
13585;DHT22;6863;48.402;9.994;2023-11-19T06:33:52;8.30;99.90
13585;DHT22;6863;48.402;9.994;2023-11-19T06:36:18;8.30;99.90
13585;DHT22;6863;48.402;9.994;2023-11-19T06:38:43;8.40;99.90
13585;DHT22;6863;48.402;9.994;2023-11-19T06:41:09;8.50;99.90
13585;DHT22;6863;48.402;9.994;2023-11-19T06:43:36;8.50;99.90
13585;DHT22;6863;48.402;9.994;2023-11-19T06:46:14;8.50;99.90
13585;DHT22;6863;48.402;9.994;2023-11-19T06:48:39;8.60;99.90
13585;DHT22;6863;48.402;9.994;2023-11-19T06:51:05;8.70;99.90
13585;DHT22;6863;48.402;9.994;2023-11-19T06:53:31;8.70;99.90
13585;DHT22;6863;48.402;9.994;2023-11-19T06:55:56;8.70;99.90
13585;DHT22;6863;48.402;9.994;2023-11-19T06:58:22;8.70;99.90
13585;DHT22;6863;48.402;9.994;2023-11-19T07:00:47;8.70;99.90
13585;DHT22;6863;48.402;9.994;2023-11-19T07:03:14;8.70;99.90
13585;DHT22;6863;48.402;9.994;2023-11-19T07:05:41;8.70;99.90
13585;DHT22;6863;48.402;9.994;2023-11-19T07:08:06;8.80;99.90
13585;DHT22;6863;48.402;9.994;2023-11-19T07:10:35;8.80;99.90
13585;DHT22;6863;48.402;9.994;2023-11-19T07:13:00;8.80;99.90
13585;DHT22;6863;48.402;9.994;2023-11-19T07:15:26;8.80;99.90
13585;DHT22;6863;48.402;9.994;2023-11-19T07:17:51;8.80;99.90
13585;DHT22;6863;48.402;9.994;2023-11-19T07:20:19;8.80;99.90
13585;DHT22;6863;48.402;9.994;2023-11-19T07:22:45;8.80;99.90
13585;DHT22;6863;48.402;9.994;2023-11-19T07:25:14;8.80;99.90
13585;DHT22;6863;48.402;9.994;2023-11-19T07:27:40;8.80;99.90
13585;DHT22;6863;48.402;9.994;2023-11-19T07:30:06;8.80;99.90
13585;DHT22;6863;48.402;9.994;2023-11-19T07:32:33;8.90;99.90
13585;DHT22;6863;48.402;9.994;2023-11-19T07:34:58;8.90;99.90
13585;DHT22;6863;48.402;9.994;2023-11-19T07:37:25;8.90;99.90
13585;DHT22;6863;48.402;9.994;2023-11-19T07:39:50;9.00;99.90
13585;DHT22;6863;48.402;9.994;2023-11-19T07:42:16;9.10;99.90
13585;DHT22;6863;48.402;9.994;2023-11-19T07:44:42;9.10;99.90
13585;DHT22;6863;48.402;9.994;2023-11-19T07:47:08;9.00;99.90
13585;DHT22;6863;48.402;9.994;2023-11-19T07:49:34;9.10;99.90
13585;DHT22;6863;48.402;9.994;2023-11-19T07:51:59;9.10;99.90
13585;DHT22;6863;48.402;9.994;2023-11-19T07:54:25;9.10;99.90
13585;DHT22;6863;48.402;9.994;2023-11-19T07:56:51;9.10;99.90
13585;DHT22;6863;48.402;9.994;2023-11-19T07:59:16;9.20;99.90
13585;DHT22;6863;48.402;9.994;2023-11-19T08:01:42;9.30;99.90
13585;DHT22;6863;48.402;9.994;2023-11-19T08:04:07;9.40;99.90
13585;DHT22;6863;48.402;9.994;2023-11-19T08:06:33;9.50;99.90
13585;DHT22;6863;48.402;9.994;2023-11-19T08:08:59;9.40;99.90
13585;DHT22;6863;48.402;9.994;2023-11-19T08:11:24;9.40;99.90
13585;DHT22;6863;48.402;9.994;2023-11-19T08:13:50;9.40;99.90
13585;DHT22;6863;48.402;9.994;2023-11-19T08:16:16;9.40;99.90
13585;DHT22;6863;48.402;9.994;2023-11-19T08:18:43;9.30;99.90
13585;DHT22;6863;48.402;9.994;2023-11-19T08:21:08;9.40;99.90
13585;DHT22;6863;48.402;9.994;2023-11-19T08:23:35;9.40;99.90
13585;DHT22;6863;48.402;9.994;2023-11-19T08:26:01;9.40;99.90
13585;DHT22;6863;48.402;9.994;2023-11-19T08:28:26;9.40;99.90
13585;DHT22;6863;48.402;9.994;2023-11-19T08:30:52;9.50;99.90
13585;DHT22;6863;48.402;9.994;2023-11-19T08:33:18;9.60;99.90
13585;DHT22;6863;48.402;9.994;2023-11-19T08:35:44;9.50;99.90
13585;DHT22;6863;48.402;9.994;2023-11-19T08:38:10;9.50;99.90
13585;DHT22;6863;48.402;9.994;2023-11-19T08:40:36;9.50;99.90
13585;DHT22;6863;48.402;9.994;2023-11-19T08:43:02;9.50;99.90
13585;DHT22;6863;48.402;9.994;2023-11-19T08:45:28;9.60;99.90
13585;DHT22;6863;48.402;9.994;2023-11-19T08:47:53;9.70;99.90
13585;DHT22;6863;48.402;9.994;2023-11-19T08:50:19;9.70;99.90
13585;DHT22;6863;48.402;9.994;2023-11-19T08:52:44;9.70;99.90
13585;DHT22;6863;48.402;9.994;2023-11-19T08:55:10;9.80;99.90
13585;DHT22;6863;48.402;9.994;2023-11-19T08:57:37;9.90;99.90
13585;DHT22;6863;48.402;9.994;2023-11-19T09:00:02;9.90;99.90
13585;DHT22;6863;48.402;9.994;2023-11-19T09:02:33;9.90;99.90
13585;DHT22;6863;48.402;9.994;2023-11-19T09:04:59;10.10;99.90
13585;DHT22;6863;48.402;9.994;2023-11-19T09:07:24;10.40;99.90
13585;DHT22;6863;48.402;9.994;2023-11-19T09:09:50;10.60;99.90
13585;DHT22;6863;48.402;9.994;2023-11-19T09:12:16;10.70;99.90
13585;DHT22;6863;48.402;9.994;2023-11-19T09:14:41;10.90;99.90
13585;DHT22;6863;48.402;9.994;2023-11-19T09:17:07;11.20;99.90
13585;DHT22;6863;48.402;9.994;2023-11-19T09:19:34;11.20;99.90
13585;DHT22;6863;48.402;9.994;2023-11-19T09:22:01;11.90;99.90
13585;DHT22;6863;48.402;9.994;2023-11-19T09:24:26;12.00;99.90
13585;DHT22;6863;48.402;9.994;2023-11-19T09:26:52;11.90;99.90
13585;DHT22;6863;48.402;9.994;2023-11-19T09:29:20;11.60;99.90
13585;DHT22;6863;48.402;9.994;2023-11-19T09:31:46;11.30;99.90
13585;DHT22;6863;48.402;9.994;2023-11-19T09:34:15;11.80;99.90
13585;DHT22;6863;48.402;9.994;2023-11-19T09:36:40;13.00;99.90
13585;DHT22;6863;48.402;9.994;2023-11-19T09:39:10;13.20;99.90
13585;DHT22;6863;48.402;9.994;2023-11-19T09:41:36;13.40;99.90
13585;DHT22;6863;48.402;9.994;2023-11-19T09:44:01;14.40;99.90
13585;DHT22;6863;48.402;9.994;2023-11-19T09:46:28;13.90;99.90
13585;DHT22;6863;48.402;9.994;2023-11-19T09:48:56;14.20;99.90
13585;DHT22;6863;48.402;9.994;2023-11-19T09:51:24;14.00;99.90
13585;DHT22;6863;48.402;9.994;2023-11-19T09:53:50;13.60;99.90
13585;DHT22;6863;48.402;9.994;2023-11-19T09:56:16;13.70;99.90
13585;DHT22;6863;48.402;9.994;2023-11-19T09:58:42;13.70;99.90
13585;DHT22;6863;48.402;9.994;2023-11-19T10:01:08;13.50;99.90
13585;DHT22;6863;48.402;9.994;2023-11-19T10:03:37;13.30;99.90
13585;DHT22;6863;48.402;9.994;2023-11-19T10:08:31;12.60;99.90
13585;DHT22;6863;48.402;9.994;2023-11-19T10:10:57;12.40;99.90
13585;DHT22;6863;48.402;9.994;2023-11-19T10:13:29;12.20;99.90
13585;DHT22;6863;48.402;9.994;2023-11-19T10:15:55;12.10;99.90
13585;DHT22;6863;48.402;9.994;2023-11-19T10:18:26;12.00;99.90
13585;DHT22;6863;48.402;9.994;2023-11-19T10:20:52;13.00;99.90
13585;DHT22;6863;48.402;9.994;2023-11-19T10:23:17;14.80;99.90
13585;DHT22;6863;48.402;9.994;2023-11-19T10:25:43;15.50;99.90
13585;DHT22;6863;48.402;9.994;2023-11-19T10:28:09;14.80;99.90
13585;DHT22;6863;48.402;9.994;2023-11-19T10:30:34;14.40;99.90
13585;DHT22;6863;48.402;9.994;2023-11-19T10:33:06;13.90;99.90
13585;DHT22;6863;48.402;9.994;2023-11-19T10:35:52;15.70;99.90
13585;DHT22;6863;48.402;9.994;2023-11-19T10:38:27;16.60;99.90
13585;DHT22;6863;48.402;9.994;2023-11-19T10:40:54;17.20;99.80
13585;DHT22;6863;48.402;9.994;2023-11-19T10:43:21;18.00;97.80
13585;DHT22;6863;48.402;9.994;2023-11-19T10:45:50;17.70;97.60
13585;DHT22;6863;48.402;9.994;2023-11-19T10:48:16;17.70;97.50
13585;DHT22;6863;48.402;9.994;2023-11-19T10:50:43;16.70;98.30
13585;DHT22;6863;48.402;9.994;2023-11-19T10:53:11;15.50;99.90
13585;DHT22;6863;48.402;9.994;2023-11-19T10:55:38;15.00;99.90
13585;DHT22;6863;48.402;9.994;2023-11-19T10:58:08;16.30;99.90
13585;DHT22;6863;48.402;9.994;2023-11-19T11:00:52;18.20;98.40
13585;DHT22;6863;48.402;9.994;2023-11-19T11:03:24;19.50;95.70
13585;DHT22;6863;48.402;9.994;2023-11-19T11:05:51;20.80;93.00
13585;DHT22;6863;48.402;9.994;2023-11-19T11:08:18;21.50;91.70
13585;DHT22;6863;48.402;9.994;2023-11-19T11:10:46;21.50;90.40
13585;DHT22;6863;48.402;9.994;2023-11-19T11:13:14;21.90;88.90
13585;DHT22;6863;48.402;9.994;2023-11-19T11:15:39;20.20;91.10
13585;DHT22;6863;48.402;9.994;2023-11-19T11:18:09;18.80;92.60
13585;DHT22;6863;48.402;9.994;2023-11-19T11:20:35;17.80;94.60
13585;DHT22;6863;48.402;9.994;2023-11-19T11:28:24;17.00;95.90
13585;DHT22;6863;48.402;9.994;2023-11-19T11:34:15;15.00;99.90
13585;DHT22;6863;48.402;9.994;2023-11-19T11:39:34;14.30;99.90
13585;DHT22;6863;48.402;9.994;2023-11-19T11:45:00;14.30;99.90
13585;DHT22;6863;48.402;9.994;2023-11-19T11:47:26;14.20;99.90
13585;DHT22;6863;48.402;9.994;2023-11-19T11:50:18;14.00;99.90
13585;DHT22;6863;48.402;9.994;2023-11-19T11:57:54;14.10;99.90
13585;DHT22;6863;48.402;9.994;2023-11-19T12:00:30;14.20;99.90
13585;DHT22;6863;48.402;9.994;2023-11-19T12:02:56;14.00;99.90
13585;DHT22;6863;48.402;9.994;2023-11-19T12:05:22;13.80;99.90
13585;DHT22;6863;48.402;9.994;2023-11-19T12:08:00;13.70;99.90
13585;DHT22;6863;48.402;9.994;2023-11-19T12:10:30;13.70;99.90
13585;DHT22;6863;48.402;9.994;2023-11-19T12:13:06;13.90;99.90
13585;DHT22;6863;48.402;9.994;2023-11-19T12:15:32;14.30;99.90
13585;DHT22;6863;48.402;9.994;2023-11-19T12:17:58;14.40;99.90
13585;DHT22;6863;48.402;9.994;2023-11-19T12:20:26;15.00;99.90
13585;DHT22;6863;48.402;9.994;2023-11-19T12:22:52;15.50;99.90
13585;DHT22;6863;48.402;9.994;2023-11-19T12:25:19;15.60;99.90
13585;DHT22;6863;48.402;9.994;2023-11-19T12:27:46;15.80;99.90
13585;DHT22;6863;48.402;9.994;2023-11-19T12:30:14;16.70;99.90
13585;DHT22;6863;48.402;9.994;2023-11-19T12:32:44;18.60;98.40
13585;DHT22;6863;48.402;9.994;2023-11-19T12:35:10;19.70;96.00
13585;DHT22;6863;48.402;9.994;2023-11-19T12:37:57;20.40;94.50
13585;DHT22;6863;48.402;9.994;2023-11-19T12:40:24;19.90;93.90
13585;DHT22;6863;48.402;9.994;2023-11-19T12:42:53;18.60;95.30
13585;DHT22;6863;48.402;9.994;2023-11-19T12:45:19;17.80;96.70
13585;DHT22;6863;48.402;9.994;2023-11-19T12:47:47;18.00;97.50
13585;DHT22;6863;48.402;9.994;2023-11-19T12:50:15;17.80;96.80
13585;DHT22;6863;48.402;9.994;2023-11-19T12:52:41;17.20;97.60
13585;DHT22;6863;48.402;9.994;2023-11-19T12:55:25;16.70;98.50
13585;DHT22;6863;48.402;9.994;2023-11-19T12:57:52;15.90;99.80
13585;DHT22;6863;48.402;9.994;2023-11-19T13:00:20;15.40;99.90
13585;DHT22;6863;48.402;9.994;2023-11-19T13:02:56;15.20;99.90
13585;DHT22;6863;48.402;9.994;2023-11-19T13:05:32;15.10;99.90
13585;DHT22;6863;48.402;9.994;2023-11-19T13:08:05;15.20;99.90
13585;DHT22;6863;48.402;9.994;2023-11-19T13:10:53;16.30;99.90
13585;DHT22;6863;48.402;9.994;2023-11-19T13:13:21;17.00;99.20
13585;DHT22;6863;48.402;9.994;2023-11-19T13:15:47;17.30;99.60
13585;DHT22;6863;48.402;9.994;2023-11-19T13:18:16;19.30;96.90
13585;DHT22;6863;48.402;9.994;2023-11-19T13:20:41;20.20;93.90
13585;DHT22;6863;48.402;9.994;2023-11-19T13:23:08;19.10;94.40
13585;DHT22;6863;48.402;9.994;2023-11-19T13:25:33;17.70;96.40
13585;DHT22;6863;48.402;9.994;2023-11-19T13:27:59;16.60;98.50
13585;DHT22;6863;48.402;9.994;2023-11-19T13:30:25;16.40;99.90
13585;DHT22;6863;48.402;9.994;2023-11-19T13:32:52;17.40;98.90
13585;DHT22;6863;48.402;9.994;2023-11-19T13:35:18;18.60;97.00
13585;DHT22;6863;48.402;9.994;2023-11-19T13:37:47;19.10;95.70
13585;DHT22;6863;48.402;9.994;2023-11-19T13:40:12;19.20;95.30
13585;DHT22;6863;48.402;9.994;2023-11-19T13:42:44;19.40;95.10
13585;DHT22;6863;48.402;9.994;2023-11-19T13:45:14;19.70;94.50
13585;DHT22;6863;48.402;9.994;2023-11-19T13:47:41;20.00;93.70
13585;DHT22;6863;48.402;9.994;2023-11-19T13:50:14;20.30;93.00
13585;DHT22;6863;48.402;9.994;2023-11-19T13:52:42;20.10;93.00
13585;DHT22;6863;48.402;9.994;2023-11-19T13:55:09;20.40;92.70
13585;DHT22;6863;48.402;9.994;2023-11-19T13:57:36;21.40;91.50
13585;DHT22;6863;48.402;9.994;2023-11-19T14:00:06;22.10;90.20
13585;DHT22;6863;48.402;9.994;2023-11-19T14:02:35;22.30;88.70
13585;DHT22;6863;48.402;9.994;2023-11-19T14:05:00;22.60;87.00
13585;DHT22;6863;48.402;9.994;2023-11-19T14:07:26;22.70;86.70
13585;DHT22;6863;48.402;9.994;2023-11-19T14:09:53;22.00;88.00
13585;DHT22;6863;48.402;9.994;2023-11-19T14:12:19;22.00;87.40
13585;DHT22;6863;48.402;9.994;2023-11-19T14:14:45;21.40;89.20
13585;DHT22;6863;48.402;9.994;2023-11-19T14:17:10;21.50;90.00
13585;DHT22;6863;48.402;9.994;2023-11-19T14:19:36;21.60;88.20
13585;DHT22;6863;48.402;9.994;2023-11-19T14:22:03;21.70;87.70
13585;DHT22;6863;48.402;9.994;2023-11-19T14:24:29;20.90;88.50
13585;DHT22;6863;48.402;9.994;2023-11-19T14:26:54;19.20;91.70
13585;DHT22;6863;48.402;9.994;2023-11-19T14:29:23;18.30;93.50
13585;DHT22;6863;48.402;9.994;2023-11-19T14:31:49;18.00;94.40
13585;DHT22;6863;48.402;9.994;2023-11-19T14:34:14;16.90;96.20
13585;DHT22;6863;48.402;9.994;2023-11-19T14:36:40;16.00;98.20
13585;DHT22;6863;48.402;9.994;2023-11-19T14:39:05;15.40;99.90
13585;DHT22;6863;48.402;9.994;2023-11-19T14:41:32;14.70;99.90
13585;DHT22;6863;48.402;9.994;2023-11-19T14:43:58;14.30;99.90
13585;DHT22;6863;48.402;9.994;2023-11-19T14:46:23;14.10;99.90
13585;DHT22;6863;48.402;9.994;2023-11-19T14:48:49;13.90;99.90
13585;DHT22;6863;48.402;9.994;2023-11-19T14:51:14;13.70;99.90
13585;DHT22;6863;48.402;9.994;2023-11-19T14:53:40;13.60;99.90
13585;DHT22;6863;48.402;9.994;2023-11-19T14:56:09;13.50;99.90
13585;DHT22;6863;48.402;9.994;2023-11-19T14:58:35;13.50;99.90
13585;DHT22;6863;48.402;9.994;2023-11-19T15:01:00;13.80;99.90
13585;DHT22;6863;48.402;9.994;2023-11-19T15:03:29;13.70;99.90
13585;DHT22;6863;48.402;9.994;2023-11-19T15:05:56;13.50;99.90
13585;DHT22;6863;48.402;9.994;2023-11-19T15:08:21;13.30;99.90
13585;DHT22;6863;48.402;9.994;2023-11-19T15:10:47;13.30;99.90
13585;DHT22;6863;48.402;9.994;2023-11-19T15:13:13;13.10;99.90
13585;DHT22;6863;48.402;9.994;2023-11-19T15:15:38;13.10;99.90
13585;DHT22;6863;48.402;9.994;2023-11-19T15:18:04;13.00;99.90
13585;DHT22;6863;48.402;9.994;2023-11-19T15:20:30;13.00;99.90
13585;DHT22;6863;48.402;9.994;2023-11-19T15:22:57;13.00;99.90
13585;DHT22;6863;48.402;9.994;2023-11-19T15:25:23;13.00;99.90
13585;DHT22;6863;48.402;9.994;2023-11-19T15:27:48;12.90;99.90
13585;DHT22;6863;48.402;9.994;2023-11-19T15:30:14;12.90;99.90
13585;DHT22;6863;48.402;9.994;2023-11-19T15:32:41;12.80;99.90
13585;DHT22;6863;48.402;9.994;2023-11-19T15:35:11;12.70;99.90
13585;DHT22;6863;48.402;9.994;2023-11-19T15:37:37;12.70;99.90
13585;DHT22;6863;48.402;9.994;2023-11-19T15:40:07;12.60;99.90
13585;DHT22;6863;48.402;9.994;2023-11-19T15:42:36;12.50;99.90
13585;DHT22;6863;48.402;9.994;2023-11-19T15:45:02;12.40;99.90
13585;DHT22;6863;48.402;9.994;2023-11-19T15:47:32;12.40;99.90
13585;DHT22;6863;48.402;9.994;2023-11-19T15:49:59;12.30;99.90
13585;DHT22;6863;48.402;9.994;2023-11-19T15:52:25;12.30;99.90
13585;DHT22;6863;48.402;9.994;2023-11-19T15:54:52;12.20;99.90
13585;DHT22;6863;48.402;9.994;2023-11-19T15:57:18;12.20;99.90
13585;DHT22;6863;48.402;9.994;2023-11-19T15:59:43;12.10;99.90
13585;DHT22;6863;48.402;9.994;2023-11-19T16:02:09;12.10;99.90
13585;DHT22;6863;48.402;9.994;2023-11-19T16:04:34;12.00;99.90
13585;DHT22;6863;48.402;9.994;2023-11-19T16:07:08;12.00;99.90
13585;DHT22;6863;48.402;9.994;2023-11-19T16:09:34;12.00;99.90
13585;DHT22;6863;48.402;9.994;2023-11-19T16:12:00;11.90;99.90
13585;DHT22;6863;48.402;9.994;2023-11-19T16:14:25;11.90;99.90
13585;DHT22;6863;48.402;9.994;2023-11-19T16:16:51;11.90;99.90
13585;DHT22;6863;48.402;9.994;2023-11-19T16:19:18;11.80;99.90